Flight Track Log - Related Links

Times and Time Zones

All times are in EDT time to prevent confusion due to time zone crossing. See the AWE1913 flight status page for this flight to view local times or setup timezone preferences in your user account.

Time Position Orientation Groundspeed Altitude Reporting Facility
EDT Latitude Longitude Course Direction KTS MPH feet Rate Location/Type
Thu 10:12:30 AM 39.8667 -75.2833 203° Southwest 164 189 900  Level Philadelphia TRACON
Thu 10:12:47 AM 39.8508 -75.2919 203° Southwest 174 200 1,500 1,622 Climbing FAA TRACON SMA TRACON (SMA)
Thu 10:13:07 AM 39.8392 -75.3044 219° Southwest 180 207 1,900 1,200 Climbing FAA TRACON SMA TRACON (SMA)
Thu 10:13:27 AM 39.8261 -75.3183 219° Southwest 200 230 2,300 1,350 Climbing FAA TRACON SMA TRACON (SMA)
Thu 10:13:47 AM 39.8072 -75.3381 219° Southwest 227 261 2,800 1,500 Climbing FAA TRACON SMA TRACON (SMA)
Thu 10:14:07 AM 39.7911 -75.3547 218° Southwest 235 270 3,300 2,100 Climbing FAA TRACON SMA TRACON (SMA)
Thu 10:14:27 AM 39.7711 -75.3725 214° Southwest 264 304 4,200 3,600 Climbing FAA TRACON SMA TRACON (SMA)
Thu 10:14:47 AM 39.7436 -75.3767 187° South 261 300 5,700 3,300 Climbing FAA TRACON SMA TRACON (SMA)
Thu 10:15:07 AM 39.7211 -75.3728 172° South 265 305 6,400 2,100 Climbing FAA TRACON SMA TRACON (SMA)
Thu 10:15:27 AM 39.6975 -75.3675 170° South 276 318 7,100 2,700 Climbing FAA TRACON SMA TRACON (SMA)
Thu 10:15:47 AM 39.6681 -75.3614 171° South 283 326 8,200 2,927 Climbing FAA TRACON SMA TRACON (SMA)
Thu 10:16:08 AM 39.6439 -75.3564 171° South 283 326 9,100 2,850 Climbing FAA TRACON SMA TRACON (SMA)
Thu 10:16:27 AM 39.6197 -75.3514 171° South 282 325 10,100 2,615 Climbing FAA TRACON SMA TRACON (SMA)
Thu 10:16:47 AM 39.5900 -75.3453 171° South 282 325 10,800 1,500 Climbing FAA TRACON SMA TRACON (SMA)
Thu 10:17:07 AM 39.5642 -75.3403 172° South 308 354 11,100 1,050 Climbing FAA TRACON SMA TRACON (SMA)
Thu 10:17:27 AM 39.5294 -75.3322 170° South 327 376 11,500 1,650 Climbing FAA TRACON SMA TRACON (SMA)
Thu 10:17:47 AM 39.4997 -75.3297 176° South 345 397 12,200 2,250 Climbing FAA TRACON SMA TRACON (SMA)
Thu 10:18:07 AM 39.4714 -75.3339 186° South 335 386 13,000 2,100 Climbing FAA TRACON SMA TRACON (SMA)
Thu 10:18:27 AM 39.4428 -75.3392 188° South 337 388 13,600 2,100 Climbing FAA TRACON SMA TRACON (SMA)
Thu 10:18:47 AM 39.4058 -75.3450 187° South 341 392 14,400 2,100 Climbing FAA TRACON SMA TRACON (SMA)
Thu 10:19:07 AM 39.3783 -75.3503 188° South 345 397 15,000 2,100 Climbing FAA TRACON SMA TRACON (SMA)
Thu 10:19:27 AM 39.3389 -75.3575 188° South 349 402 15,800 1,800 Climbing FAA TRACON SMA TRACON (SMA)
Thu 10:19:47 AM 39.3086 -75.3625 187° South 355 409 16,200 1,500 Climbing FAA TRACON SMA TRACON (SMA)
Thu 10:20:07 AM 39.2775 -75.3681 188° South 362 417 16,800 1,500 Climbing FAA TRACON SMA TRACON (SMA)
Thu 10:20:27 AM 39.2458 -75.3739 188° South 369 425 17,200 1,513 Climbing FAA TRACON SMA TRACON (SMA)
Thu 10:22:02 AM 39.0819 -75.4017 187° South 384 442 19,700 1,510 Climbing Washington Center
Thu 10:23:02 AM 38.9714 -75.4208 188° South 396 456 21,100 1,650 Climbing Washington Center
Thu 10:24:02 AM 38.8589 -75.4369 186° South 407 468 23,000 1,550 Climbing Washington Center
Thu 10:25:02 AM 38.7444 -75.4533 186° South 413 475 24,200 1,350 Climbing Washington Center
Thu 10:26:02 AM 38.6256 -75.4722 187° South 424 488 25,700 1,250 Climbing Washington Center
Thu 10:27:02 AM 38.5047 -75.4856 185° South 429 494 26,700 950 Climbing Washington Center
Thu 10:28:02 AM 38.3817 -75.5069 188° South 434 499 27,600 1,000 Climbing Washington Center
Thu 10:29:02 AM 38.2608 -75.5442 194° South 444 511 28,700 900 Climbing Washington Center
Thu 10:30:02 AM 38.1397 -75.5969 199° South 452 520 29,400 1,100 Climbing Washington Center
Thu 10:31:02 AM 38.0250 -75.6525 201° Southwest 457 526 30,900 1,050 Climbing Washington Center
Thu 10:32:02 AM 37.9061 -75.7022 198° South 457 526 31,500 600 Climbing Washington Center
Thu 10:33:02 AM 37.7872 -75.7547 199° South 457 526 32,100 600 Climbing Washington Center
Thu 10:34:02 AM 37.6619 -75.8094 199° South 463 533 32,700 850 Climbing Washington Center
Thu 10:35:02 AM 37.5389 -75.8589 198° South 469 540 33,800 650 Climbing Washington Center
Thu 10:36:02 AM 37.4197 -75.9239 203° Southwest 469 540 34,000 100 Climbing Washington Center
Thu 10:37:02 AM 37.3008 -75.9886 203° Southwest 469 540 34,000  Level Washington Center
Thu 10:38:02 AM 37.1836 -76.0506 203° Southwest 469 540 34,000 -50 Level Washington Center
Thu 10:39:02 AM 37.0625 -76.1150 203° Southwest 469 540 33,900  Descending Washington Center
Thu 10:40:02 AM 36.9392 -76.1739 201° Southwest 469 540 34,000 50 Climbing Washington Center
Thu 10:41:02 AM 36.8197 -76.2406 204° Southwest 474 545 34,000  Level Washington Center
Thu 10:42:02 AM 36.7025 -76.3044 204° Southwest 474 545 34,000  Level Washington Center
Thu 10:43:02 AM 36.5728 -76.3808 205° Southwest 474 545 34,000  Level Washington Center
Thu 10:44:02 AM 36.4533 -76.4442 203° Southwest 474 545 34,000  Level Washington Center
Thu 10:45:02 AM 36.3361 -76.5072 203° Southwest 469 540 34,000  Level Washington Center
Thu 10:46:02 AM 36.2167 -76.5728 204° Southwest 469 540 34,000  Level Washington Center
Thu 10:47:02 AM 36.0994 -76.6383 204° Southwest 464 534 34,000  Level Washington Center
Thu 10:48:02 AM 35.9797 -76.6983 202° Southwest 464 534 34,000  Level Washington Center
Thu 10:49:02 AM 35.8625 -76.7633 204° Southwest 464 534 34,000  Level Washington Center
Thu 10:50:02 AM 35.7428 -76.8281 204° Southwest 464 534 34,000 -50 Level Washington Center
Thu 10:51:02 AM 35.6464 -76.8753 202° Southwest 464 534 33,900  Descending Washington Center
Thu 10:52:03 AM 35.5183 -76.9497 205° Southwest 464 534 34,000 50 Climbing Washington Center
Thu 10:53:02 AM 35.3986 -77.0139 204° Southwest 464 534 34,000  Level Washington Center
Thu 10:54:02 AM 35.2767 -77.0781 203° Southwest 469 540 34,000  Level Washington Center
Thu 10:55:02 AM 35.1569 -77.1417 203° Southwest 469 540 34,000  Level Washington Center
Thu 10:56:02 AM 35.0353 -77.2053 203° Southwest 474 545 34,000  Level Washington Center
Thu 10:57:02 AM 34.9194 -77.2689 204° Southwest 474 545 34,000  Level Washington Center
Thu 10:58:02 AM 34.7997 -77.3347 204° Southwest 474 545 34,000  Level Washington Center
Thu 10:59:02 AM 34.6797 -77.3953 203° Southwest 474 545 34,000  Level Washington Center
Thu 11:00:02 AM 34.5558 -77.4506 200° South 469 540 34,000  Level Washington Center
Thu 11:01:03 AM 34.4261 -77.4778 190° South 474 545 34,000 -50 Level Washington Center
Thu 11:02:02 AM 34.2944 -77.5000 188° South 474 545 33,900  Descending Washington Center
Thu 11:06:04 AM 33.7689 -77.5939 188° South 486 559 34,000 20 Climbing Jacksonville Center
Thu 11:07:04 AM 33.6219 -77.6203 189° South 486 559 34,000  Level Jacksonville Center
Thu 11:08:04 AM 33.4892 -77.6406 187° South 486 559 34,000  Level Jacksonville Center
Thu 11:09:04 AM 33.3589 -77.6656 189° South 480 552 34,000  Level Jacksonville Center
Thu 11:10:04 AM 33.2281 -77.6858 187° South 480 552 34,000  Level Jacksonville Center
Thu 11:11:04 AM 33.0978 -77.7106 189° South 480 552 34,000  Level Jacksonville Center
Thu 11:12:04 AM 32.9631 -77.7333 188° South 480 552 34,000  Level Jacksonville Center
Thu 11:13:04 AM 32.8325 -77.7556 188° South 480 552 34,000 -50 Level Jacksonville Center
Thu 11:14:04 AM 32.7019 -77.7778 188° South 480 552 33,900 -50 Descending Jacksonville Center
Thu 11:15:04 AM 32.5714 -77.8025 189° South 480 552 33,900 50 Level Jacksonville Center
Thu 11:16:04 AM 32.4386 -77.8247 188° South 480 552 34,000 50 Climbing Jacksonville Center
Thu 11:17:04 AM 32.3081 -77.8467 188° South 480 552 34,000  Level Jacksonville Center
Thu 11:18:04 AM 32.1728 -77.8517 182° South 480 552 34,000  Level Jacksonville Center
Thu 11:19:04 AM 32.0406 -77.8394 176° South 480 552 34,000  Level Jacksonville Center
Thu 11:20:04 AM 31.9047 -77.8297 177° South 485 558 34,000  Level Jacksonville Center
Thu 11:21:04 AM 31.7708 -77.8247 178° South 485 558 34,000  Level Jacksonville Center
Thu 11:22:04 AM 31.6369 -77.8175 177° South 482 555 34,000 -50 Level Jacksonville Center
Thu 11:23:04 AM 31.5025 -77.7956 172° South 481 554 33,900  Descending Jacksonville Center
Thu 11:24:04 AM 31.3672 -77.8056 184° South 485 558 34,000 50 Climbing Jacksonville Center
Thu 11:25:04 AM 31.2353 -77.7956 176° South 481 554 34,000 -50 Level Jacksonville Center
Thu 11:26:04 AM 31.1014 -77.7858 176° South 483 556 33,900 -50 Descending Jacksonville Center
Thu 11:27:04 AM 30.9675 -77.7786 177° South 480 552 33,900  Level Jacksonville Center
Thu 11:28:04 AM 30.8358 -77.7736 178° South 485 558 33,900 50 Level Jacksonville Center
Thu 11:29:04 AM 30.7014 -77.7567 174° South 480 552 34,000 33 Climbing Jacksonville Center
Thu 11:31:08 AM 30.4403 -77.7531 179° South 499 574 34,000  Level Miami Center
Thu 11:32:08 AM 30.3069 -77.7447 177° South 490 564 34,000 -250 Level Miami Center
Thu 11:33:08 AM 30.1631 -77.7458 180° South 476 548 33,500 -550 Descending Miami Center
Thu 11:34:08 AM 30.0506 -77.7331 174° South 488 562 32,900 -650 Descending Miami Center
Thu 11:35:08 AM 29.9108 -77.7319 180° South 474 545 32,200 -450 Descending Miami Center
Thu 11:36:08 AM 29.7711 -77.7189 175° South 483 556 32,000 -100 Descending Miami Center
Thu 11:37:08 AM 29.6481 -77.7203 181° South 483 556 32,000  Level Miami Center
Thu 11:38:08 AM 29.4958 -77.7094 176° South 477 549 32,000  Level Miami Center
Thu 11:39:08 AM 29.3750 -77.7014 177° South 482 555 32,000  Level Miami Center
Thu 11:40:08 AM 29.2372 -77.6908 176° South 482 555 32,000  Level Miami Center
Thu 11:41:08 AM 29.1039 -77.6853 178° South 477 549 32,000 -50 Level Miami Center
Thu 11:42:08 AM 28.9744 -77.6794 178° South 475 547 31,900  Descending Miami Center
Thu 11:43:08 AM 28.8431 -77.6739 178° South 482 555 32,000  Climbing Miami Center
Thu 11:44:08 AM 28.7094 -77.6658 177° South 476 548 31,900  Descending Miami Center
Thu 11:45:08 AM 28.5781 -77.6578 177° South 476 548 32,000 50 Climbing Miami Center
Thu 11:46:08 AM 28.4425 -77.6519 178° South 476 548 32,000  Level Miami Center
Thu 11:47:08 AM 28.3108 -77.6439 177° South 477 549 32,000  Level Miami Center
Thu 11:48:08 AM 28.1836 -77.6361 177° South 472 543 32,000  Level Miami Center
Thu 11:49:08 AM 28.0542 -77.6306 178° South 473 544 32,000  Level Miami Center
Thu 11:50:08 AM 27.9186 -77.6225 177° South 473 544 32,000  Level Miami Center
Thu 11:51:08 AM 27.7869 -77.6144 177° South 474 545 32,000  Level Miami Center
Thu 11:52:08 AM 27.6492 -77.6089 178° South 479 551 32,000  Level Miami Center
Thu 11:53:08 AM 27.5031 -77.6033 178° South 484 557 32,000  Level Miami Center
Thu 11:54:08 AM 27.3736 -77.5861 173° South 484 557 32,000  Level Miami Center
Thu 11:55:08 AM 27.2381 -77.5806 178° South 479 551 32,000  Level Miami Center
Thu 11:56:08 AM 27.1042 -77.5706 176° South 479 551 32,000 -350 Level Miami Center
Thu 11:57:08 AM 26.9664 -77.5672 179° South 479 551 31,300 -1,100 Descending Miami Center
Thu 11:58:08 AM 26.8264 -77.5664 180° South 489 563 29,800 -1,450 Descending Miami Center
Thu 11:59:08 AM 26.6886 -77.5447 172° South 500 575 28,400 -1,450 Descending Miami Center
Thu 12:00:08 PM 26.5531 -77.5417 179° South 494 568 26,900 -1,500 Descending Miami Center
Thu 12:01:08 PM 26.4150 -77.5317 176° South 499 574 25,400 -2,200 Descending Miami Center
Thu 12:02:08 PM 26.2814 -77.5239 177° South 494 568 22,500 -2,750 Descending Miami Center
Thu 12:03:08 PM 26.1539 -77.5161 177° South 483 556 19,900 -2,700 Descending Miami Center
Thu 12:04:08 PM 26.0350 -77.5086 177° South 466 536 17,100 -2,600 Descending Miami Center
Thu 12:05:08 PM 25.9178 -77.5033 178° South 433 498 14,700 -1,950 Descending Miami Center
Thu 12:06:08 PM 25.8114 -77.4958 176° South 407 468 13,200 -850 Descending Miami Center
Thu 12:07:08 PM 25.7172 -77.4908 177° South 373 429 13,000 -100 Descending Miami Center
Thu 12:08:08 PM 25.6317 -77.4858 177° South 335 386 13,000 -650 Level Miami Center
Thu 12:09:08 PM 25.5503 -77.4783 175° South 309 356 11,700 -1,850 Descending Miami Center
Thu 12:10:08 PM 25.4708 -77.4756 178° South 291 335 9,300 -2,250 Descending Miami Center
Thu 12:11:08 PM 25.3936 -77.4800 183° South 286 329 7,200 -2,200 Descending Miami Center
Thu 12:12:08 PM 25.3389 -77.5394 224° Southwest 260 299 4,900 -2,300 Descending Miami Center

Login

Don't have an account? Register now (free) for customized features, flight alerts, and more!